createdAt,value
2023-05-17T00:00:24.557Z,0
2023-05-17T00:01:40.838Z,0
2023-05-17T00:02:57.134Z,0
2023-05-17T00:04:13.412Z,0
2023-05-17T00:05:29.709Z,0
2023-05-17T00:06:46.017Z,0
2023-05-17T00:08:02.322Z,0
2023-05-17T00:09:18.614Z,0
2023-05-17T00:10:34.903Z,0
2023-05-17T00:11:51.198Z,0
2023-05-17T00:13:07.484Z,0
2023-05-17T00:14:22.792Z,0
2023-05-17T00:15:39.081Z,0
2023-05-17T00:16:55.407Z,0
2023-05-17T00:18:11.669Z,0
2023-05-17T00:19:27.959Z,0
2023-05-17T00:20:44.281Z,0
2023-05-17T00:21:59.602Z,0
2023-05-17T00:23:15.863Z,0
2023-05-17T00:24:32.181Z,0
2023-05-17T00:25:48.451Z,0
2023-05-17T00:27:04.748Z,0
2023-05-17T00:28:21.049Z,0
2023-05-17T00:29:37.373Z,0
2023-05-17T00:30:53.634Z,0
2023-05-17T00:32:09.963Z,0
2023-05-17T00:33:26.256Z,0
2023-05-17T00:34:42.542Z,0
2023-05-17T00:35:58.838Z,0
2023-05-17T00:37:15.126Z,0
2023-05-17T00:38:30.435Z,0
2023-05-17T00:39:46.742Z,0
2023-05-17T00:41:03.024Z,0
2023-05-17T00:42:19.319Z,0
2023-05-17T00:43:35.626Z,0
2023-05-17T00:44:51.918Z,0
2023-05-17T00:46:08.223Z,0
2023-05-17T00:47:24.515Z,0
2023-05-17T00:48:40.780Z,0
2023-05-17T00:49:57.082Z,0
2023-05-17T00:51:13.361Z,0
2023-05-17T00:52:29.687Z,0
2023-05-17T00:53:45.982Z,0
2023-05-17T00:55:01.299Z,0
2023-05-17T00:56:17.561Z,0
2023-05-17T00:57:33.876Z,0
2023-05-17T00:58:50.182Z,0
2023-05-17T01:00:06.478Z,0
2023-05-17T01:01:22.739Z,0
2023-05-17T01:02:39.053Z,0
2023-05-17T01:03:55.331Z,0
2023-05-17T01:05:11.622Z,0
2023-05-17T01:06:27.918Z,0
2023-05-17T01:07:44.246Z,0
2023-05-17T01:09:00.531Z,0
2023-05-17T01:10:16.837Z,0
2023-05-17T01:11:32.136Z,0
2023-05-17T01:12:48.426Z,0
2023-05-17T01:14:04.720Z,0
2023-05-17T01:15:21.015Z,0
2023-05-17T01:16:37.318Z,0
2023-05-17T01:17:53.605Z,0
2023-05-17T01:19:09.911Z,0
2023-05-17T01:20:26.195Z,0
2023-05-17T01:21:42.487Z,0
2023-05-17T01:22:58.793Z,0
2023-05-17T01:24:15.087Z,0
2023-05-17T01:26:47.644Z,0
2023-05-17T01:28:02.982Z,0
2023-05-17T01:29:19.255Z,0
2023-05-17T01:30:35.584Z,0
2023-05-17T01:31:51.860Z,0
2023-05-17T01:33:08.175Z,0
2023-05-17T01:34:24.463Z,0
2023-05-17T01:35:40.740Z,0
2023-05-17T01:36:57.039Z,0
2023-05-17T01:38:13.339Z,0
2023-05-17T01:39:29.627Z,0
2023-05-17T01:40:45.926Z,0
2023-05-17T01:42:02.199Z,0
2023-05-17T01:43:18.524Z,0
2023-05-17T01:44:33.804Z,0
2023-05-17T01:45:50.136Z,0
2023-05-17T01:47:06.421Z,0
2023-05-17T01:48:22.690Z,0
2023-05-17T01:49:39.011Z,0
2023-05-17T01:50:55.284Z,0
2023-05-17T01:52:11.593Z,0
2023-05-17T01:53:27.904Z,0
2023-05-17T01:54:44.187Z,0
2023-05-17T01:56:00.482Z,0
2023-05-17T01:57:16.748Z,0
2023-05-17T01:58:33.074Z,0
2023-05-17T01:59:49.369Z,0
2023-05-17T02:01:04.687Z,0
2023-05-17T02:02:20.965Z,0
2023-05-17T02:03:37.267Z,0
2023-05-17T02:04:53.556Z,0
2023-05-17T02:06:09.843Z,0
2023-05-17T02:07:26.154Z,0
2023-05-17T02:08:42.428Z,0
2023-05-17T02:09:58.714Z,0
2023-05-17T02:11:15.011Z,0
2023-05-17T02:12:31.295Z,0
2023-05-17T02:13:47.590Z,0
2023-05-17T02:15:03.898Z,0
2023-05-17T02:16:20.192Z,0
2023-05-17T02:17:35.501Z,0
2023-05-17T02:18:51.798Z,0
2023-05-17T02:20:08.085Z,0
2023-05-17T02:21:24.392Z,0
2023-05-17T02:22:40.671Z,0
2023-05-17T02:23:56.973Z,0
2023-05-17T02:25:13.271Z,0
2023-05-17T02:26:29.562Z,0
2023-05-17T02:27:45.862Z,0
2023-05-17T02:29:02.164Z,0
2023-05-17T02:30:18.457Z,0
2023-05-17T02:31:34.742Z,0
2023-05-17T02:32:51.033Z,0
2023-05-17T02:34:06.345Z,0
2023-05-17T02:35:22.643Z,0
2023-05-17T02:36:38.928Z,0
2023-05-17T02:37:55.231Z,0
2023-05-17T02:39:11.529Z,0
2023-05-17T02:40:27.829Z,0
2023-05-17T02:41:44.117Z,0
2023-05-17T02:43:00.417Z,0
2023-05-17T02:44:16.702Z,0
2023-05-17T02:45:33.004Z,0
2023-05-17T02:46:49.285Z,0
2023-05-17T02:48:05.542Z,0
2023-05-17T02:49:21.827Z,0
2023-05-17T02:50:37.139Z,0
2023-05-17T02:51:53.448Z,0
2023-05-17T02:53:09.693Z,0
2023-05-17T02:54:25.920Z,0
2023-05-17T02:55:42.222Z,0
2023-05-17T02:56:58.522Z,0
2023-05-17T02:58:14.824Z,0
2023-05-17T02:59:31.109Z,0
2023-05-17T03:00:47.405Z,0
2023-05-17T03:02:03.693Z,0
2023-05-17T03:03:19.995Z,0
2023-05-17T03:04:36.256Z,0
2023-05-17T03:05:52.485Z,0
2023-05-17T03:07:07.751Z,0
2023-05-17T03:08:23.982Z,0
2023-05-17T03:09:40.234Z,0
2023-05-17T03:10:56.478Z,0
2023-05-17T03:12:12.716Z,0
2023-05-17T03:13:28.948Z,0
2023-05-17T03:14:45.194Z,0
2023-05-17T03:16:01.436Z,0
2023-05-17T03:17:17.669Z,0
2023-05-17T03:18:33.921Z,0
2023-05-17T03:19:50.147Z,0
2023-05-17T03:21:06.398Z,0
2023-05-17T03:22:22.631Z,0
2023-05-17T03:23:37.895Z,0
2023-05-17T03:24:54.126Z,0
2023-05-17T03:26:10.367Z,0
2023-05-17T03:27:26.616Z,0
2023-05-17T03:28:42.852Z,0
2023-05-17T03:29:59.091Z,0
2023-05-17T03:31:15.329Z,0
2023-05-17T03:32:31.583Z,0
2023-05-17T03:33:47.810Z,0
2023-05-17T03:35:04.050Z,0
2023-05-17T03:36:20.308Z,0
2023-05-17T03:37:36.537Z,0
2023-05-17T03:38:52.796Z,0
2023-05-17T03:40:08.034Z,0
2023-05-17T03:41:24.288Z,0
2023-05-17T03:42:40.513Z,0
2023-05-17T03:43:56.769Z,0
2023-05-17T03:45:13.005Z,0
2023-05-17T03:46:29.244Z,0
2023-05-17T03:47:45.491Z,0
2023-05-17T03:49:01.716Z,0
2023-05-17T03:50:17.968Z,0
2023-05-17T03:51:34.213Z,0
2023-05-17T03:52:50.445Z,0
2023-05-17T03:54:06.684Z,0
2023-05-17T03:55:22.924Z,0
2023-05-17T03:56:38.176Z,0
2023-05-17T03:57:54.423Z,0
2023-05-17T03:59:10.675Z,0
2023-05-17T04:00:26.911Z,0
2023-05-17T04:01:43.141Z,0
2023-05-17T04:02:59.383Z,0
2023-05-17T04:04:15.632Z,0
2023-05-17T04:05:31.863Z,0
2023-05-17T04:06:48.126Z,0
2023-05-17T04:08:04.356Z,0
2023-05-17T04:09:20.604Z,0
2023-05-17T04:10:36.826Z,5
2023-05-17T04:11:53.080Z,5
2023-05-17T04:13:08.332Z,5
2023-05-17T04:14:24.588Z,5
2023-05-17T04:15:40.819Z,5
2023-05-17T04:16:57.059Z,5
2023-05-17T04:18:13.287Z,5
2023-05-17T04:19:29.535Z,5
2023-05-17T04:20:45.771Z,5
2023-05-17T04:22:02.013Z,5
2023-05-17T04:23:18.265Z,5
2023-05-17T04:24:34.510Z,5
2023-05-17T04:25:50.740Z,5
2023-05-17T04:27:06.985Z,5
2023-05-17T04:28:23.233Z,5
2023-05-17T04:29:38.486Z,11
2023-05-17T04:30:54.712Z,11
2023-05-17T04:32:10.964Z,5
2023-05-17T04:33:27.199Z,5
2023-05-17T04:34:43.442Z,5
2023-05-17T04:35:59.681Z,5
2023-05-17T04:37:14.945Z,5
2023-05-17T04:38:31.184Z,5
2023-05-17T04:39:47.431Z,5
2023-05-17T04:41:03.660Z,5
2023-05-17T04:42:19.902Z,5
2023-05-17T04:43:36.141Z,5
2023-05-17T04:44:52.402Z,5
2023-05-17T04:46:08.635Z,5
2023-05-17T04:47:24.872Z,5
2023-05-17T04:48:41.122Z,5
2023-05-17T04:49:57.350Z,5
2023-05-17T04:51:13.593Z,5
2023-05-17T04:52:29.843Z,5
2023-05-17T04:53:45.086Z,5
2023-05-17T04:55:01.346Z,11
2023-05-17T04:56:17.581Z,11
2023-05-17T04:57:33.810Z,11
2023-05-17T04:58:50.057Z,11
2023-05-17T05:00:06.292Z,11
2023-05-17T05:01:22.548Z,11
2023-05-17T05:02:38.794Z,16
2023-05-17T05:03:55.024Z,16
2023-05-17T05:05:11.268Z,16
2023-05-17T05:06:27.506Z,16
2023-05-17T05:07:43.739Z,16
2023-05-17T05:08:59.978Z,16
2023-05-17T05:10:15.234Z,16
2023-05-17T05:11:31.476Z,11
2023-05-17T05:12:47.715Z,11
2023-05-17T05:14:03.955Z,11
2023-05-17T05:15:20.205Z,16
2023-05-17T05:16:36.444Z,16
2023-05-17T05:17:52.679Z,16
2023-05-17T05:19:08.914Z,16
2023-05-17T05:20:25.165Z,16
2023-05-17T05:21:41.400Z,16
2023-05-17T05:22:57.650Z,16
2023-05-17T05:24:13.887Z,16
2023-05-17T05:25:30.126Z,16
2023-05-17T05:26:45.394Z,16
2023-05-17T05:28:01.625Z,16
2023-05-17T05:29:17.865Z,16
2023-05-17T05:30:34.107Z,16
2023-05-17T05:31:50.348Z,16
2023-05-17T05:33:06.594Z,16
2023-05-17T05:34:22.825Z,16
2023-05-17T05:35:39.070Z,16
2023-05-17T05:36:55.316Z,16
2023-05-17T05:38:11.556Z,16
2023-05-17T05:39:27.801Z,16
2023-05-17T05:40:44.039Z,22
2023-05-17T05:42:00.283Z,22
2023-05-17T05:43:15.522Z,22
2023-05-17T05:44:31.765Z,22
2023-05-17T05:45:48.004Z,22
2023-05-17T05:47:04.250Z,22
2023-05-17T05:48:20.497Z,22
2023-05-17T05:49:36.738Z,22
2023-05-17T05:50:52.985Z,22
2023-05-17T05:52:09.206Z,28
2023-05-17T05:53:25.466Z,28
2023-05-17T05:54:41.693Z,28
2023-05-17T05:55:57.944Z,28
2023-05-17T05:57:14.176Z,28
2023-05-17T05:58:30.430Z,28
2023-05-17T05:59:45.670Z,28
2023-05-17T06:01:01.925Z,28
2023-05-17T06:02:18.147Z,28
2023-05-17T06:03:34.398Z,28
2023-05-17T06:04:50.647Z,28
2023-05-17T06:06:06.888Z,22
2023-05-17T06:07:23.130Z,16
2023-05-17T06:08:39.360Z,22
2023-05-17T06:09:55.598Z,16
2023-05-17T06:11:11.845Z,16
2023-05-17T06:12:28.080Z,16
2023-05-17T06:13:44.326Z,16
2023-05-17T06:15:00.558Z,16
2023-05-17T06:16:15.828Z,28
2023-05-17T06:17:32.079Z,16
2023-05-17T06:18:48.312Z,22
2023-05-17T06:20:04.553Z,28
2023-05-17T06:21:20.799Z,16
2023-05-17T06:22:37.043Z,28
2023-05-17T06:23:53.262Z,33
2023-05-17T06:25:09.506Z,22
2023-05-17T06:26:25.751Z,28
2023-05-17T06:27:41.995Z,28
2023-05-17T06:28:58.225Z,11
2023-05-17T06:30:14.478Z,16
2023-05-17T06:31:30.721Z,28
2023-05-17T06:32:45.984Z,22
2023-05-17T06:34:02.230Z,28
2023-05-17T06:35:18.472Z,28
2023-05-17T06:36:34.711Z,16
2023-05-17T06:37:50.955Z,11
2023-05-17T06:39:07.197Z,11
2023-05-17T06:40:23.447Z,11
2023-05-17T06:41:39.682Z,16
2023-05-17T06:42:55.913Z,11
2023-05-17T06:44:12.153Z,5
2023-05-17T06:45:28.394Z,5
2023-05-17T06:46:44.641Z,11
2023-05-17T06:48:00.874Z,5
2023-05-17T06:49:16.136Z,5
2023-05-17T06:50:32.377Z,11
2023-05-17T06:51:48.619Z,11
2023-05-17T06:53:04.862Z,11
2023-05-17T06:54:21.089Z,11
2023-05-17T06:55:37.337Z,22
2023-05-17T06:56:53.572Z,22
2023-05-17T06:58:09.811Z,22
2023-05-17T06:59:26.057Z,28
2023-05-17T07:00:42.310Z,33
2023-05-17T07:01:58.541Z,28
2023-05-17T07:03:14.774Z,33
2023-05-17T07:04:31.017Z,28
2023-05-17T07:05:46.273Z,28
2023-05-17T07:07:02.530Z,28
2023-05-17T07:08:18.762Z,22
2023-05-17T07:09:35.002Z,39
2023-05-17T07:10:51.249Z,45
2023-05-17T07:12:07.486Z,45
2023-05-17T07:13:23.725Z,33
2023-05-17T07:14:39.970Z,45
2023-05-17T07:15:56.199Z,39
2023-05-17T07:17:12.438Z,16
2023-05-17T07:18:28.673Z,28
2023-05-17T07:19:44.923Z,16
2023-05-17T07:21:01.171Z,22
2023-05-17T07:22:16.414Z,28
2023-05-17T07:23:32.674Z,22
2023-05-17T07:24:48.908Z,22
2023-05-17T07:26:05.132Z,28
2023-05-17T07:27:21.378Z,28
2023-05-17T07:28:37.632Z,16
2023-05-17T07:29:53.854Z,11
2023-05-17T07:31:10.110Z,11
2023-05-17T07:32:26.342Z,16
2023-05-17T07:33:42.587Z,11
2023-05-17T07:34:58.819Z,11
2023-05-17T07:36:15.062Z,16
2023-05-17T07:37:31.319Z,45
2023-05-17T07:38:46.578Z,45
2023-05-17T07:40:02.812Z,33
2023-05-17T07:41:19.053Z,45
2023-05-17T07:42:35.294Z,33
2023-05-17T07:43:51.535Z,39
2023-05-17T07:45:07.767Z,33
2023-05-17T07:46:24.014Z,33
2023-05-17T07:47:40.251Z,39
2023-05-17T07:48:56.502Z,16
2023-05-17T07:50:12.737Z,16
2023-05-17T07:51:28.977Z,16
2023-05-17T07:52:45.228Z,16
2023-05-17T07:54:01.461Z,22
2023-05-17T07:55:16.736Z,45
2023-05-17T07:56:32.966Z,33
2023-05-17T07:57:49.209Z,39
2023-05-17T07:59:05.444Z,16
2023-05-17T08:00:21.690Z,16
2023-05-17T08:01:37.937Z,16
2023-05-17T08:02:54.174Z,22
2023-05-17T08:04:10.409Z,16
2023-05-17T08:05:26.658Z,16
2023-05-17T08:06:42.891Z,16
2023-05-17T08:07:59.125Z,16
2023-05-17T08:09:15.379Z,22
2023-05-17T08:10:31.626Z,56
2023-05-17T08:11:46.882Z,33
2023-05-17T08:13:03.132Z,28
2023-05-17T08:14:19.370Z,22
2023-05-17T08:15:35.601Z,22
2023-05-17T08:16:51.851Z,22
2023-05-17T08:18:08.077Z,22
2023-05-17T08:19:24.333Z,22
2023-05-17T08:20:40.572Z,28
2023-05-17T08:21:56.801Z,39
2023-05-17T08:23:13.053Z,67
2023-05-17T08:24:29.282Z,61
2023-05-17T08:25:45.517Z,45
2023-05-17T08:27:01.767Z,39
2023-05-17T08:28:17.030Z,33
2023-05-17T08:29:33.259Z,33
2023-05-17T08:30:49.496Z,39
2023-05-17T08:32:05.735Z,67
2023-05-17T08:33:21.985Z,73
2023-05-17T08:34:38.237Z,61
2023-05-17T08:35:54.470Z,28
2023-05-17T08:37:10.699Z,22
2023-05-17T08:38:26.943Z,22
2023-05-17T08:39:43.196Z,28
2023-05-17T08:40:59.417Z,28
2023-05-17T08:42:15.669Z,28
2023-05-17T08:43:31.901Z,28
2023-05-17T08:44:47.176Z,33
2023-05-17T08:46:03.405Z,33
2023-05-17T08:47:19.647Z,50
2023-05-17T08:48:35.894Z,28
2023-05-17T08:49:52.136Z,22
2023-05-17T08:51:08.372Z,22
2023-05-17T08:52:23.636Z,22
2023-05-17T08:53:39.869Z,22
2023-05-17T08:54:56.100Z,22
2023-05-17T08:56:12.347Z,28
2023-05-17T08:57:28.581Z,28
2023-05-17T08:58:44.834Z,28
2023-05-17T09:00:01.073Z,33
2023-05-17T09:01:17.303Z,33
2023-05-17T09:02:33.551Z,33
2023-05-17T09:03:49.783Z,39
2023-05-17T09:05:06.032Z,39
2023-05-17T09:06:22.270Z,50
2023-05-17T09:07:38.518Z,39
2023-05-17T09:08:53.768Z,33
2023-05-17T09:10:10.010Z,28
2023-05-17T09:11:26.250Z,28
2023-05-17T09:12:42.482Z,28
2023-05-17T09:13:58.728Z,22
2023-05-17T09:15:14.977Z,67
2023-05-17T09:16:31.221Z,78
2023-05-17T09:17:47.454Z,84
2023-05-17T09:19:03.696Z,56
2023-05-17T09:20:19.940Z,39
2023-05-17T09:21:36.186Z,39
2023-05-17T09:22:52.427Z,33
2023-05-17T09:24:08.676Z,28
2023-05-17T09:25:23.923Z,28
2023-05-17T09:26:40.157Z,28
2023-05-17T09:27:56.407Z,22
2023-05-17T09:29:12.641Z,22
2023-05-17T09:30:28.000Z,22
2023-05-17T09:31:45.122Z,22
2023-05-17T09:33:01.360Z,22
2023-05-17T09:34:17.594Z,28
2023-05-17T09:35:33.840Z,28
2023-05-17T09:36:50.078Z,28
2023-05-17T09:38:06.331Z,33
2023-05-17T09:39:22.564Z,33
2023-05-17T09:40:38.808Z,33
2023-05-17T09:41:54.068Z,73
2023-05-17T09:43:10.310Z,73
2023-05-17T09:44:26.549Z,78
2023-05-17T09:45:42.794Z,78
2023-05-17T09:46:59.046Z,45
2023-05-17T09:48:15.286Z,56
2023-05-17T09:49:31.529Z,33
2023-05-17T09:50:47.750Z,28
2023-05-17T09:52:04.003Z,22
2023-05-17T09:53:20.230Z,22
2023-05-17T09:54:36.482Z,28
2023-05-17T09:55:52.727Z,28
2023-05-17T09:57:08.951Z,28
2023-05-17T09:58:24.206Z,28
2023-05-17T09:59:40.451Z,28
2023-05-17T10:00:56.694Z,33
2023-05-17T10:02:12.933Z,39
2023-05-17T10:03:29.171Z,78
2023-05-17T10:04:45.425Z,73
2023-05-17T10:06:01.654Z,39
2023-05-17T10:07:17.890Z,45
2023-05-17T10:08:34.142Z,67
2023-05-17T10:09:50.381Z,50
2023-05-17T10:11:06.624Z,50
2023-05-17T10:12:22.852Z,45
2023-05-17T10:13:39.112Z,84
2023-05-17T10:14:54.366Z,56
2023-05-17T10:16:10.601Z,90
2023-05-17T10:17:26.842Z,45
2023-05-17T10:18:43.090Z,39
2023-05-17T10:19:59.332Z,33
2023-05-17T10:21:15.575Z,33
2023-05-17T10:22:31.802Z,39
2023-05-17T10:23:48.042Z,28
2023-05-17T10:25:04.280Z,22
2023-05-17T10:26:20.529Z,22
2023-05-17T10:27:36.790Z,73
2023-05-17T10:28:53.015Z,84
2023-05-17T10:30:09.265Z,84
2023-05-17T10:31:24.516Z,84
2023-05-17T10:32:40.755Z,39
2023-05-17T10:33:56.995Z,33
2023-05-17T10:35:13.239Z,33
2023-05-17T10:36:29.472Z,33
2023-05-17T10:37:45.719Z,28
2023-05-17T10:39:01.967Z,28
2023-05-17T10:40:18.192Z,33
2023-05-17T10:41:34.434Z,39
2023-05-17T10:42:50.691Z,78
2023-05-17T10:44:06.913Z,84
2023-05-17T10:45:23.161Z,73
2023-05-17T10:46:39.402Z,67
2023-05-17T10:47:54.665Z,45
2023-05-17T10:49:10.898Z,90
2023-05-17T10:50:27.136Z,45
2023-05-17T10:51:43.371Z,39
2023-05-17T10:52:59.625Z,39
2023-05-17T10:54:15.867Z,33
2023-05-17T10:55:32.099Z,33
2023-05-17T10:56:48.335Z,33
2023-05-17T10:58:04.580Z,33
2023-05-17T10:59:20.813Z,33
2023-05-17T11:00:37.054Z,33
2023-05-17T11:01:53.307Z,39
2023-05-17T11:03:09.541Z,61
2023-05-17T11:04:24.808Z,45
2023-05-17T11:05:41.038Z,90
2023-05-17T11:06:57.288Z,90
2023-05-17T11:08:13.513Z,61
2023-05-17T11:09:29.756Z,90
2023-05-17T11:10:45.994Z,90
2023-05-17T11:12:02.248Z,45
2023-05-17T11:13:18.479Z,45
2023-05-17T11:14:34.713Z,45
2023-05-17T11:15:50.954Z,39
2023-05-17T11:17:07.194Z,39
2023-05-17T11:18:23.445Z,39
2023-05-17T11:19:39.681Z,39
2023-05-17T11:20:54.949Z,39
2023-05-17T11:22:11.181Z,33
2023-05-17T11:23:27.413Z,28
2023-05-17T11:24:43.659Z,28
2023-05-17T11:25:59.895Z,39
2023-05-17T11:27:16.145Z,50
2023-05-17T11:28:32.379Z,73
2023-05-17T11:29:48.614Z,73
2023-05-17T11:31:04.866Z,73
2023-05-17T11:32:21.105Z,78
2023-05-17T11:33:37.342Z,78
2023-05-17T11:34:53.583Z,45
2023-05-17T11:36:09.827Z,45
2023-05-17T11:37:25.084Z,39
2023-05-17T11:38:41.329Z,39
2023-05-17T11:39:57.563Z,45
2023-05-17T11:41:13.805Z,45
2023-05-17T11:42:30.036Z,78
2023-05-17T11:43:46.288Z,39
2023-05-17T11:45:02.514Z,39
2023-05-17T11:46:18.760Z,39
2023-05-17T11:47:34.999Z,39
2023-05-17T11:48:51.232Z,45
2023-05-17T11:50:07.482Z,45
2023-05-17T11:51:23.719Z,73
2023-05-17T11:52:39.958Z,50
2023-05-17T11:53:55.211Z,67
2023-05-17T11:55:11.462Z,33
2023-05-17T11:56:27.705Z,28
2023-05-17T11:57:43.939Z,61
2023-05-17T11:59:00.191Z,61
2023-05-17T12:00:16.425Z,67
2023-05-17T12:01:32.667Z,39
2023-05-17T12:02:48.908Z,45
2023-05-17T12:04:05.133Z,45
2023-05-17T12:05:21.387Z,45
2023-05-17T12:06:37.619Z,50
2023-05-17T12:07:53.859Z,61
2023-05-17T12:09:10.097Z,56
2023-05-17T12:10:25.354Z,67
2023-05-17T12:11:41.604Z,33
2023-05-17T12:12:57.833Z,22
2023-05-17T12:14:14.087Z,28
2023-05-17T12:15:30.314Z,45
2023-05-17T12:16:46.565Z,45
2023-05-17T12:18:02.795Z,56
2023-05-17T12:19:19.031Z,50
2023-05-17T12:20:35.287Z,33
2023-05-17T12:21:51.516Z,33
2023-05-17T12:23:07.765Z,45
2023-05-17T12:24:24.014Z,28
2023-05-17T12:25:40.246Z,28
2023-05-17T12:26:55.504Z,28
2023-05-17T12:28:11.739Z,28
2023-05-17T12:29:27.981Z,45
2023-05-17T12:30:44.230Z,50
2023-05-17T12:32:00.451Z,39
2023-05-17T12:33:16.693Z,33
2023-05-17T12:34:32.946Z,39
2023-05-17T12:35:49.183Z,39
2023-05-17T12:37:05.415Z,33
2023-05-17T12:38:21.672Z,45
2023-05-17T12:39:37.904Z,39
2023-05-17T12:40:54.132Z,39
2023-05-17T12:42:10.392Z,33
2023-05-17T12:43:25.646Z,33
2023-05-17T12:44:41.888Z,28
2023-05-17T12:45:58.122Z,28
2023-05-17T12:47:14.367Z,28
2023-05-17T12:48:30.609Z,39
2023-05-17T12:49:46.848Z,33
2023-05-17T12:51:03.086Z,28
2023-05-17T12:52:19.313Z,28
2023-05-17T12:53:35.556Z,28
2023-05-17T12:54:51.810Z,22
2023-05-17T12:56:08.036Z,22
2023-05-17T12:57:24.287Z,28
2023-05-17T12:58:40.531Z,22
2023-05-17T12:59:55.779Z,28
2023-05-17T13:01:12.011Z,33
2023-05-17T13:02:28.265Z,45
2023-05-17T13:03:44.501Z,39
2023-05-17T13:05:00.744Z,33
2023-05-17T13:06:16.976Z,33
2023-05-17T13:07:32.245Z,33
2023-05-17T13:08:48.475Z,39
2023-05-17T13:10:04.717Z,45
2023-05-17T13:11:20.957Z,45
2023-05-17T13:12:37.206Z,33
2023-05-17T13:13:53.450Z,33
2023-05-17T13:15:09.691Z,28
2023-05-17T13:16:25.000Z,28
2023-05-17T13:17:42.159Z,22
2023-05-17T13:18:58.411Z,22
2023-05-17T13:20:14.647Z,22
2023-05-17T13:21:30.886Z,22
2023-05-17T13:22:47.128Z,22
2023-05-17T13:24:02.374Z,22
2023-05-17T13:25:18.633Z,22
2023-05-17T13:26:34.872Z,22
2023-05-17T13:27:51.097Z,22
2023-05-17T13:29:07.343Z,22
2023-05-17T13:30:23.587Z,22
2023-05-17T13:31:39.822Z,28
2023-05-17T13:32:56.058Z,33
2023-05-17T13:34:12.296Z,28
2023-05-17T13:35:28.546Z,28
2023-05-17T13:36:44.793Z,28
2023-05-17T13:38:01.033Z,28
2023-05-17T13:39:17.274Z,28
2023-05-17T13:40:32.518Z,22
2023-05-17T13:41:48.760Z,22
2023-05-17T13:43:05.009Z,22
2023-05-17T13:44:21.245Z,28
2023-05-17T13:45:37.477Z,28
2023-05-17T13:46:53.722Z,28
2023-05-17T13:48:09.974Z,22
2023-05-17T13:49:26.213Z,22
2023-05-17T13:50:42.440Z,28
2023-05-17T13:51:58.691Z,28
2023-05-17T13:53:14.932Z,28
2023-05-17T13:54:31.157Z,22
2023-05-17T13:55:47.397Z,16
2023-05-17T13:57:02.671Z,22
2023-05-17T13:58:18.895Z,22
2023-05-17T13:59:35.144Z,28
2023-05-17T14:00:51.392Z,33
2023-05-17T14:02:07.623Z,28
2023-05-17T14:03:23.872Z,33
2023-05-17T14:04:40.104Z,22
2023-05-17T14:05:56.348Z,22
2023-05-17T14:07:12.575Z,28
2023-05-17T14:08:28.815Z,22
2023-05-17T14:09:45.061Z,16
2023-05-17T14:11:01.303Z,22
2023-05-17T14:12:17.546Z,22
2023-05-17T14:13:32.799Z,22
2023-05-17T14:14:49.045Z,28
2023-05-17T14:16:05.285Z,28
2023-05-17T14:17:21.518Z,22
2023-05-17T14:18:37.753Z,22
2023-05-17T14:19:53.992Z,28
2023-05-17T14:21:10.240Z,28
2023-05-17T14:22:26.484Z,28
2023-05-17T14:23:42.713Z,33
2023-05-17T14:24:58.973Z,33
2023-05-17T14:26:15.206Z,28
2023-05-17T14:27:31.439Z,28
2023-05-17T14:28:47.676Z,28
2023-05-17T14:30:02.944Z,28
2023-05-17T14:31:19.180Z,28
2023-05-17T14:32:35.423Z,28
2023-05-17T14:33:51.658Z,28
2023-05-17T14:35:07.901Z,28
2023-05-17T14:36:24.139Z,28
2023-05-17T14:37:40.386Z,28
2023-05-17T14:38:56.631Z,28
2023-05-17T14:40:12.857Z,28
2023-05-17T14:41:29.106Z,28
2023-05-17T14:42:45.338Z,28
2023-05-17T14:44:01.582Z,28
2023-05-17T14:45:17.832Z,28
2023-05-17T14:46:33.089Z,28
2023-05-17T14:47:49.327Z,22
2023-05-17T14:49:05.556Z,28
2023-05-17T14:50:21.801Z,28
2023-05-17T14:51:38.045Z,28
2023-05-17T14:52:54.282Z,33
2023-05-17T14:54:10.514Z,28
2023-05-17T14:55:26.769Z,39
2023-05-17T14:56:42.992Z,22
2023-05-17T14:57:59.238Z,28
2023-05-17T14:59:15.477Z,28
2023-05-17T15:00:31.723Z,28
2023-05-17T15:01:47.962Z,22
2023-05-17T15:03:03.209Z,22
2023-05-17T15:04:19.469Z,22
2023-05-17T15:05:35.704Z,22
2023-05-17T15:06:51.931Z,22
2023-05-17T15:08:08.187Z,22
2023-05-17T15:09:24.421Z,22
2023-05-17T15:10:40.656Z,22
2023-05-17T15:11:56.903Z,22
2023-05-17T15:13:13.146Z,22
2023-05-17T15:14:29.382Z,28
2023-05-17T15:15:45.628Z,28
2023-05-17T15:17:01.862Z,16
2023-05-17T15:18:18.093Z,118
2023-05-17T15:19:33.365Z,16
2023-05-17T15:20:49.613Z,135
2023-05-17T15:22:05.850Z,84
2023-05-17T15:23:22.085Z,28
2023-05-17T15:24:38.340Z,22
2023-05-17T15:25:54.564Z,22
2023-05-17T15:27:10.825Z,22
2023-05-17T15:28:27.050Z,22
2023-05-17T15:29:43.287Z,22
2023-05-17T15:30:59.530Z,22
2023-05-17T15:32:15.763Z,22
2023-05-17T15:33:32.013Z,22
2023-05-17T15:34:48.259Z,16
2023-05-17T15:36:03.507Z,16
2023-05-17T15:37:19.749Z,16
2023-05-17T15:38:36.000Z,16
2023-05-17T15:39:52.227Z,16
2023-05-17T15:41:08.473Z,16
2023-05-17T15:42:24.724Z,16
2023-05-17T15:43:40.961Z,16
2023-05-17T15:44:57.186Z,22
2023-05-17T15:46:13.429Z,16
2023-05-17T15:47:29.678Z,16
2023-05-17T15:48:45.906Z,16
2023-05-17T15:50:02.157Z,16
2023-05-17T15:51:18.396Z,22
2023-05-17T15:52:33.660Z,22
2023-05-17T15:53:49.895Z,22
2023-05-17T15:55:06.124Z,22
2023-05-17T15:56:22.360Z,16
2023-05-17T15:57:38.609Z,16
2023-05-17T15:58:54.853Z,45
2023-05-17T16:00:11.090Z,16
2023-05-17T16:01:27.321Z,22
2023-05-17T16:02:43.575Z,22
2023-05-17T16:03:59.817Z,39
2023-05-17T16:05:16.052Z,11
2023-05-17T16:06:32.302Z,11
2023-05-17T16:07:48.551Z,33
2023-05-17T16:09:03.813Z,22
2023-05-17T16:10:20.049Z,11
2023-05-17T16:11:36.292Z,11
2023-05-17T16:12:52.530Z,16
2023-05-17T16:14:08.775Z,16
2023-05-17T16:15:25.014Z,16
2023-05-17T16:16:41.261Z,22
2023-05-17T16:17:57.485Z,39
2023-05-17T16:19:13.734Z,16
2023-05-17T16:20:29.974Z,50
2023-05-17T16:21:46.223Z,39
2023-05-17T16:23:02.453Z,11
2023-05-17T16:24:18.686Z,16
2023-05-17T16:25:33.948Z,16
2023-05-17T16:26:50.199Z,16
2023-05-17T16:28:06.432Z,16
2023-05-17T16:29:22.672Z,16
2023-05-17T16:30:38.901Z,16
2023-05-17T16:31:55.149Z,45
2023-05-17T16:33:11.402Z,106
2023-05-17T16:34:27.633Z,112
2023-05-17T16:35:43.874Z,33
2023-05-17T16:37:00.126Z,39
2023-05-17T16:38:16.362Z,45
2023-05-17T16:39:32.593Z,22
2023-05-17T16:40:48.825Z,28
2023-05-17T16:42:04.087Z,16
2023-05-17T16:43:20.331Z,16
2023-05-17T16:44:36.560Z,16
2023-05-17T16:45:52.821Z,16
2023-05-17T16:47:09.042Z,16
2023-05-17T16:48:25.285Z,39
2023-05-17T16:49:41.541Z,45
2023-05-17T16:50:57.780Z,45
2023-05-17T16:52:14.001Z,16
2023-05-17T16:53:30.250Z,16
2023-05-17T16:54:46.488Z,16
2023-05-17T16:56:02.735Z,22
2023-05-17T16:57:18.976Z,16
2023-05-17T16:58:34.229Z,16
2023-05-17T16:59:50.474Z,16
2023-05-17T17:01:06.707Z,16
2023-05-17T17:02:22.956Z,16
2023-05-17T17:03:39.191Z,16
2023-05-17T17:04:55.422Z,16
2023-05-17T17:06:11.676Z,11
2023-05-17T17:07:27.901Z,11
2023-05-17T17:08:44.163Z,11
2023-05-17T17:10:00.389Z,11
2023-05-17T17:11:16.632Z,11
2023-05-17T17:12:32.871Z,11
2023-05-17T17:13:49.000Z,11
2023-05-17T17:15:04.360Z,11
2023-05-17T17:16:20.602Z,11
2023-05-17T17:17:36.850Z,11
2023-05-17T17:18:53.096Z,11
2023-05-17T17:20:09.319Z,11
2023-05-17T17:21:25.569Z,11
2023-05-17T17:22:40.828Z,11
2023-05-17T17:23:57.073Z,11
2023-05-17T17:25:13.319Z,11
2023-05-17T17:26:29.560Z,11
2023-05-17T17:27:45.793Z,11
2023-05-17T17:29:02.025Z,11
2023-05-17T17:30:18.263Z,11
2023-05-17T17:31:34.513Z,11
2023-05-17T17:32:50.751Z,11
2023-05-17T17:34:06.992Z,11
2023-05-17T17:35:23.234Z,11
2023-05-17T17:36:39.479Z,11
2023-05-17T17:37:55.705Z,11
2023-05-17T17:39:10.964Z,11
2023-05-17T17:40:27.204Z,11
2023-05-17T17:41:43.449Z,11
2023-05-17T17:42:59.701Z,11
2023-05-17T17:44:15.930Z,11
2023-05-17T17:45:32.174Z,11
2023-05-17T17:46:48.416Z,11
2023-05-17T17:48:04.645Z,11
2023-05-17T17:49:20.892Z,11
2023-05-17T17:50:37.138Z,5
2023-05-17T17:51:53.365Z,5
2023-05-17T17:53:09.614Z,5
2023-05-17T17:54:25.857Z,5
2023-05-17T17:55:41.110Z,5
2023-05-17T17:56:57.348Z,5
2023-05-17T17:58:13.588Z,5
2023-05-17T17:59:29.000Z,5
2023-05-17T18:00:46.076Z,5
2023-05-17T18:02:02.307Z,5
2023-05-17T18:03:18.560Z,5
2023-05-17T18:04:34.797Z,5
2023-05-17T18:05:51.040Z,5
2023-05-17T18:07:07.286Z,5
2023-05-17T18:08:23.525Z,5
2023-05-17T18:09:39.766Z,5
2023-05-17T18:10:56.006Z,5
2023-05-17T18:12:11.252Z,5
2023-05-17T18:13:27.503Z,5
2023-05-17T18:14:43.731Z,5
2023-05-17T18:15:59.981Z,0
2023-05-17T18:17:16.206Z,0
2023-05-17T18:18:32.463Z,0